X  Fermer Données météorologiques d'aviation de Metar     LEGR F.G.L. Airport Granada-Jaén Airport
Température
26°C Température
17°C Point de rosée
58% Humidité



Vent
10 KM/H
6 MPH
3 M/S
5 KTS



190°
S
Conditions actuelles

Clair Clair
Pression 1021 (hPa) - 30.15 (inHg)
Visibilité 6 (mile) - 9.7 (km)
Aéroport
Code de l'aéroport LEGR

Emplacement: F.G.L. Airport Granada-Jaén Airport
Distance: 138 (km)

Metar:
LEGR 230100Z AUTO 19005KT 140V230 CAVOK 26/17 Q1021

Temps: 23-07-2024 03:00 CEST